<?xml version="1.0" encoding="UTF-8" standalone="no" ?>
<gpx xmlns="http://www.topografix.com/GPX/1/1" xmlns:xsi="http://www.w3.org/2001/XMLSchema-instance" xsi:schemaLocation="http://www.topografix.com/GPX/1/1 http://www.topografix.com/GPX/1/1/gpx.xsd" version="1.1" creator="VisuGPX - https://www.visugpx.com">
  <metadata>
    <name>GR20 - 8 - CastelDiVergio - Tighjettu</name>
    <desc><![CDATA[Etape 8 entre CastelDiVergio - Tighjettu]]></desc>
  </metadata>
  <trk>
    <name><![CDATA[GR20 - 8 - CastelDiVergio - Tighjettu_1]]></name>
    <trkseg>
      <trkpt lat="42.28749" lon="8.89189">
        <ele>1418</ele>
        <time>2009-06-08T07:16:02Z</time>
      </trkpt>
      <trkpt lat="42.28802" lon="8.8914">
        <ele>1418</ele>
        <time>2009-06-08T07:17:02Z</time>
      </trkpt>
      <trkpt lat="42.28815" lon="8.89079">
        <ele>1423</ele>
        <time>2009-06-08T07:18:02Z</time>
      </trkpt>
      <trkpt lat="42.2883" lon="8.89">
        <ele>1426</ele>
        <time>2009-06-08T07:19:02Z</time>
      </trkpt>
      <trkpt lat="42.28873" lon="8.88947">
        <ele>1421</ele>
        <time>2009-06-08T07:20:02Z</time>
      </trkpt>
      <trkpt lat="42.28921" lon="8.8888">
        <ele>1419</ele>
        <time>2009-06-08T07:21:02Z</time>
      </trkpt>
      <trkpt lat="42.28933" lon="8.88795">
        <ele>1419</ele>
        <time>2009-06-08T07:22:02Z</time>
      </trkpt>
      <trkpt lat="42.28949" lon="8.8872">
        <ele>1414</ele>
        <time>2009-06-08T07:23:02Z</time>
      </trkpt>
      <trkpt lat="42.28926" lon="8.88655">
        <ele>1408</ele>
        <time>2009-06-08T07:24:02Z</time>
      </trkpt>
      <trkpt lat="42.28892" lon="8.88596">
        <ele>1413</ele>
        <time>2009-06-08T07:25:02Z</time>
      </trkpt>
      <trkpt lat="42.28932" lon="8.88534">
        <ele>1412</ele>
        <time>2009-06-08T07:26:02Z</time>
      </trkpt>
      <trkpt lat="42.28956" lon="8.88469">
        <ele>1413</ele>
        <time>2009-06-08T07:27:02Z</time>
      </trkpt>
      <trkpt lat="42.29003" lon="8.8842">
        <ele>1414</ele>
        <time>2009-06-08T07:28:02Z</time>
      </trkpt>
      <trkpt lat="42.29038" lon="8.8834">
        <ele>1419</ele>
        <time>2009-06-08T07:29:02Z</time>
      </trkpt>
      <trkpt lat="42.29059" lon="8.88263">
        <ele>1419</ele>
        <time>2009-06-08T07:30:02Z</time>
      </trkpt>
      <trkpt lat="42.29104" lon="8.88221">
        <ele>1420</ele>
        <time>2009-06-08T07:31:02Z</time>
      </trkpt>
      <trkpt lat="42.29156" lon="8.88258">
        <ele>1420</ele>
        <time>2009-06-08T07:32:02Z</time>
      </trkpt>
      <trkpt lat="42.29203" lon="8.88262">
        <ele>1417</ele>
        <time>2009-06-08T07:33:02Z</time>
      </trkpt>
      <trkpt lat="42.29259" lon="8.88238">
        <ele>1419</ele>
        <time>2009-06-08T07:34:02Z</time>
      </trkpt>
      <trkpt lat="42.29312" lon="8.88224">
        <ele>1422</ele>
        <time>2009-06-08T07:35:02Z</time>
      </trkpt>
      <trkpt lat="42.29376" lon="8.8823">
        <ele>1427</ele>
        <time>2009-06-08T07:36:02Z</time>
      </trkpt>
      <trkpt lat="42.29434" lon="8.88199">
        <ele>1427</ele>
        <time>2009-06-08T07:37:02Z</time>
      </trkpt>
      <trkpt lat="42.29493" lon="8.8819">
        <ele>1427</ele>
        <time>2009-06-08T07:38:02Z</time>
      </trkpt>
      <trkpt lat="42.29545" lon="8.88238">
        <ele>1428</ele>
        <time>2009-06-08T07:39:02Z</time>
      </trkpt>
      <trkpt lat="42.2961" lon="8.8824">
        <ele>1422</ele>
        <time>2009-06-08T07:40:02Z</time>
      </trkpt>
      <trkpt lat="42.29674" lon="8.88174">
        <ele>1419</ele>
        <time>2009-06-08T07:41:02Z</time>
      </trkpt>
      <trkpt lat="42.29712" lon="8.88095">
        <ele>1412</ele>
        <time>2009-06-08T07:42:02Z</time>
      </trkpt>
      <trkpt lat="42.29728" lon="8.88057">
        <ele>1405</ele>
        <time>2009-06-08T07:43:02Z</time>
      </trkpt>
      <trkpt lat="42.29778" lon="8.8805">
        <ele>1394</ele>
        <time>2009-06-08T07:44:02Z</time>
      </trkpt>
      <trkpt lat="42.29824" lon="8.88065">
        <ele>1392</ele>
        <time>2009-06-08T07:45:02Z</time>
      </trkpt>
      <trkpt lat="42.29876" lon="8.88105">
        <ele>1395</ele>
        <time>2009-06-08T07:46:02Z</time>
      </trkpt>
      <trkpt lat="42.29908" lon="8.88119">
        <ele>1392</ele>
        <time>2009-06-08T07:47:02Z</time>
      </trkpt>
      <trkpt lat="42.29937" lon="8.88144">
        <ele>1387</ele>
        <time>2009-06-08T07:48:02Z</time>
      </trkpt>
      <trkpt lat="42.29979" lon="8.88191">
        <ele>1382</ele>
        <time>2009-06-08T07:49:02Z</time>
      </trkpt>
      <trkpt lat="42.3001" lon="8.88244">
        <ele>1380</ele>
        <time>2009-06-08T07:50:02Z</time>
      </trkpt>
      <trkpt lat="42.3002" lon="8.88213">
        <ele>1376</ele>
        <time>2009-06-08T07:51:02Z</time>
      </trkpt>
      <trkpt lat="42.30021" lon="8.88222">
        <ele>1382</ele>
        <time>2009-06-08T07:52:02Z</time>
      </trkpt>
      <trkpt lat="42.3004" lon="8.88162">
        <ele>1390</ele>
        <time>2009-06-08T07:53:02Z</time>
      </trkpt>
      <trkpt lat="42.30076" lon="8.88094">
        <ele>1391</ele>
        <time>2009-06-08T07:54:02Z</time>
      </trkpt>
      <trkpt lat="42.30114" lon="8.88009">
        <ele>1391</ele>
        <time>2009-06-08T07:55:02Z</time>
      </trkpt>
      <trkpt lat="42.30155" lon="8.87939">
        <ele>1385</ele>
        <time>2009-06-08T07:56:02Z</time>
      </trkpt>
      <trkpt lat="42.30184" lon="8.87858">
        <ele>1380</ele>
        <time>2009-06-08T07:57:02Z</time>
      </trkpt>
      <trkpt lat="42.30205" lon="8.87783">
        <ele>1380</ele>
        <time>2009-06-08T07:58:02Z</time>
      </trkpt>
      <trkpt lat="42.30243" lon="8.87707">
        <ele>1379</ele>
        <time>2009-06-08T07:59:02Z</time>
      </trkpt>
      <trkpt lat="42.30289" lon="8.87664">
        <ele>1376</ele>
        <time>2009-06-08T08:00:02Z</time>
      </trkpt>
      <trkpt lat="42.30306" lon="8.87603">
        <ele>1375</ele>
        <time>2009-06-08T08:01:02Z</time>
      </trkpt>
      <trkpt lat="42.30297" lon="8.87562">
        <ele>1378</ele>
        <time>2009-06-08T08:02:02Z</time>
      </trkpt>
      <trkpt lat="42.30323" lon="8.87525">
        <ele>1378</ele>
        <time>2009-06-08T08:03:02Z</time>
      </trkpt>
      <trkpt lat="42.30348" lon="8.8749">
        <ele>1385</ele>
        <time>2009-06-08T08:04:02Z</time>
      </trkpt>
      <trkpt lat="42.30364" lon="8.8752">
        <ele>1393</ele>
        <time>2009-06-08T08:05:02Z</time>
      </trkpt>
      <trkpt lat="42.30384" lon="8.8751">
        <ele>1399</ele>
        <time>2009-06-08T08:06:02Z</time>
      </trkpt>
      <trkpt lat="42.30387" lon="8.87545">
        <ele>1400</ele>
        <time>2009-06-08T08:07:02Z</time>
      </trkpt>
      <trkpt lat="42.30417" lon="8.87565">
        <ele>1405</ele>
        <time>2009-06-08T08:08:02Z</time>
      </trkpt>
      <trkpt lat="42.30462" lon="8.87603">
        <ele>1405</ele>
        <time>2009-06-08T08:09:02Z</time>
      </trkpt>
      <trkpt lat="42.30489" lon="8.87649">
        <ele>1395</ele>
        <time>2009-06-08T08:10:02Z</time>
      </trkpt>
      <trkpt lat="42.30533" lon="8.87686">
        <ele>1388</ele>
        <time>2009-06-08T08:11:02Z</time>
      </trkpt>
      <trkpt lat="42.30572" lon="8.8772">
        <ele>1391</ele>
        <time>2009-06-08T08:12:02Z</time>
      </trkpt>
      <trkpt lat="42.30624" lon="8.87726">
        <ele>1395</ele>
        <time>2009-06-08T08:13:02Z</time>
      </trkpt>
      <trkpt lat="42.30647" lon="8.87765">
        <ele>1401</ele>
        <time>2009-06-08T08:14:02Z</time>
      </trkpt>
      <trkpt lat="42.30674" lon="8.87766">
        <ele>1403</ele>
        <time>2009-06-08T08:15:02Z</time>
      </trkpt>
      <trkpt lat="42.30711" lon="8.87762">
        <ele>1404</ele>
        <time>2009-06-08T08:16:02Z</time>
      </trkpt>
      <trkpt lat="42.3076" lon="8.87741">
        <ele>1412</ele>
        <time>2009-06-08T08:17:02Z</time>
      </trkpt>
      <trkpt lat="42.30796" lon="8.87722">
        <ele>1418</ele>
        <time>2009-06-08T08:18:02Z</time>
      </trkpt>
      <trkpt lat="42.30818" lon="8.87717">
        <ele>1426</ele>
        <time>2009-06-08T08:19:02Z</time>
      </trkpt>
      <trkpt lat="42.30841" lon="8.87697">
        <ele>1434</ele>
        <time>2009-06-08T08:20:02Z</time>
      </trkpt>
      <trkpt lat="42.30869" lon="8.87675">
        <ele>1441</ele>
        <time>2009-06-08T08:21:02Z</time>
      </trkpt>
      <trkpt lat="42.30893" lon="8.8764">
        <ele>1448</ele>
        <time>2009-06-08T08:22:02Z</time>
      </trkpt>
      <trkpt lat="42.30928" lon="8.87588">
        <ele>1456</ele>
        <time>2009-06-08T08:23:02Z</time>
      </trkpt>
      <trkpt lat="42.30959" lon="8.87538">
        <ele>1464</ele>
        <time>2009-06-08T08:24:02Z</time>
      </trkpt>
      <trkpt lat="42.30984" lon="8.87525">
        <ele>1471</ele>
        <time>2009-06-08T08:25:02Z</time>
      </trkpt>
      <trkpt lat="42.31" lon="8.87509">
        <ele>1476</ele>
        <time>2009-06-08T08:26:02Z</time>
      </trkpt>
      <trkpt lat="42.31008" lon="8.87445">
        <ele>1484</ele>
        <time>2009-06-08T08:27:02Z</time>
      </trkpt>
      <trkpt lat="42.31004" lon="8.8738">
        <ele>1492</ele>
        <time>2009-06-08T08:28:02Z</time>
      </trkpt>
      <trkpt lat="42.30991" lon="8.8732">
        <ele>1499</ele>
        <time>2009-06-08T08:29:02Z</time>
      </trkpt>
      <trkpt lat="42.31004" lon="8.87288">
        <ele>1505</ele>
        <time>2009-06-08T08:30:02Z</time>
      </trkpt>
      <trkpt lat="42.31001" lon="8.87233">
        <ele>1512</ele>
        <time>2009-06-08T08:31:02Z</time>
      </trkpt>
      <trkpt lat="42.31011" lon="8.87216">
        <ele>1520</ele>
        <time>2009-06-08T08:32:02Z</time>
      </trkpt>
      <trkpt lat="42.31021" lon="8.87168">
        <ele>1526</ele>
        <time>2009-06-08T08:33:02Z</time>
      </trkpt>
      <trkpt lat="42.31025" lon="8.87118">
        <ele>1531</ele>
        <time>2009-06-08T08:34:02Z</time>
      </trkpt>
      <trkpt lat="42.31026" lon="8.87064">
        <ele>1538</ele>
        <time>2009-06-08T08:35:02Z</time>
      </trkpt>
      <trkpt lat="42.31015" lon="8.8705">
        <ele>1545</ele>
        <time>2009-06-08T08:36:02Z</time>
      </trkpt>
      <trkpt lat="42.3106" lon="8.87033">
        <ele>1552</ele>
        <time>2009-06-08T08:37:02Z</time>
      </trkpt>
      <trkpt lat="42.31096" lon="8.87007">
        <ele>1555</ele>
        <time>2009-06-08T08:38:02Z</time>
      </trkpt>
      <trkpt lat="42.31132" lon="8.86977">
        <ele>1557</ele>
        <time>2009-06-08T08:39:02Z</time>
      </trkpt>
      <trkpt lat="42.3117" lon="8.86928">
        <ele>1564</ele>
        <time>2009-06-08T08:40:02Z</time>
      </trkpt>
      <trkpt lat="42.31219" lon="8.86909">
        <ele>1571</ele>
        <time>2009-06-08T08:41:02Z</time>
      </trkpt>
      <trkpt lat="42.31261" lon="8.86876">
        <ele>1577</ele>
        <time>2009-06-08T08:42:02Z</time>
      </trkpt>
      <trkpt lat="42.31321" lon="8.86842">
        <ele>1581</ele>
        <time>2009-06-08T08:43:02Z</time>
      </trkpt>
      <trkpt lat="42.31376" lon="8.86815">
        <ele>1586</ele>
        <time>2009-06-08T08:44:02Z</time>
      </trkpt>
      <trkpt lat="42.31439" lon="8.86811">
        <ele>1589</ele>
        <time>2009-06-08T08:45:02Z</time>
      </trkpt>
      <trkpt lat="42.31488" lon="8.86813">
        <ele>1591</ele>
        <time>2009-06-08T08:46:02Z</time>
      </trkpt>
      <trkpt lat="42.31537" lon="8.86802">
        <ele>1595</ele>
        <time>2009-06-08T08:47:02Z</time>
      </trkpt>
      <trkpt lat="42.31594" lon="8.86787">
        <ele>1601</ele>
        <time>2009-06-08T08:48:02Z</time>
      </trkpt>
      <trkpt lat="42.31641" lon="8.86801">
        <ele>1607</ele>
        <time>2009-06-08T08:49:02Z</time>
      </trkpt>
      <trkpt lat="42.31673" lon="8.86815">
        <ele>1611</ele>
        <time>2009-06-08T08:50:02Z</time>
      </trkpt>
      <trkpt lat="42.31715" lon="8.86809">
        <ele>1615</ele>
        <time>2009-06-08T08:51:02Z</time>
      </trkpt>
      <trkpt lat="42.31766" lon="8.86808">
        <ele>1619</ele>
        <time>2009-06-08T08:52:02Z</time>
      </trkpt>
      <trkpt lat="42.318" lon="8.86838">
        <ele>1626</ele>
        <time>2009-06-08T08:53:02Z</time>
      </trkpt>
      <trkpt lat="42.31842" lon="8.86889">
        <ele>1631</ele>
        <time>2009-06-08T08:54:02Z</time>
      </trkpt>
      <trkpt lat="42.31883" lon="8.86925">
        <ele>1635</ele>
        <time>2009-06-08T08:55:02Z</time>
      </trkpt>
      <trkpt lat="42.31936" lon="8.86952">
        <ele>1639</ele>
        <time>2009-06-08T08:56:02Z</time>
      </trkpt>
      <trkpt lat="42.31996" lon="8.86952">
        <ele>1644</ele>
        <time>2009-06-08T08:57:02Z</time>
      </trkpt>
      <trkpt lat="42.32053" lon="8.86939">
        <ele>1649</ele>
        <time>2009-06-08T08:58:02Z</time>
      </trkpt>
      <trkpt lat="42.32113" lon="8.86934">
        <ele>1653</ele>
        <time>2009-06-08T08:59:02Z</time>
      </trkpt>
      <trkpt lat="42.32167" lon="8.86916">
        <ele>1656</ele>
        <time>2009-06-08T09:00:02Z</time>
      </trkpt>
      <trkpt lat="42.32217" lon="8.8691">
        <ele>1661</ele>
        <time>2009-06-08T09:01:02Z</time>
      </trkpt>
      <trkpt lat="42.32259" lon="8.86914">
        <ele>1666</ele>
        <time>2009-06-08T09:02:02Z</time>
      </trkpt>
      <trkpt lat="42.32293" lon="8.86887">
        <ele>1673</ele>
        <time>2009-06-08T09:03:02Z</time>
      </trkpt>
      <trkpt lat="42.32327" lon="8.86858">
        <ele>1679</ele>
        <time>2009-06-08T09:04:02Z</time>
      </trkpt>
      <trkpt lat="42.3234" lon="8.86821">
        <ele>1685</ele>
        <time>2009-06-08T09:05:02Z</time>
      </trkpt>
      <trkpt lat="42.32355" lon="8.86792">
        <ele>1689</ele>
        <time>2009-06-08T09:06:02Z</time>
      </trkpt>
      <trkpt lat="42.32367" lon="8.86761">
        <ele>1697</ele>
        <time>2009-06-08T09:07:02Z</time>
      </trkpt>
      <trkpt lat="42.32354" lon="8.86741">
        <ele>1706</ele>
        <time>2009-06-08T09:08:02Z</time>
      </trkpt>
      <trkpt lat="42.32343" lon="8.86712">
        <ele>1715</ele>
        <time>2009-06-08T09:09:02Z</time>
      </trkpt>
      <trkpt lat="42.32339" lon="8.8668">
        <ele>1724</ele>
        <time>2009-06-08T09:10:02Z</time>
      </trkpt>
      <trkpt lat="42.32344" lon="8.86644">
        <ele>1733</ele>
        <time>2009-06-08T09:11:02Z</time>
      </trkpt>
      <trkpt lat="42.32349" lon="8.86612">
        <ele>1741</ele>
        <time>2009-06-08T09:12:02Z</time>
      </trkpt>
      <trkpt lat="42.32336" lon="8.8658">
        <ele>1750</ele>
        <time>2009-06-08T09:13:02Z</time>
      </trkpt>
      <trkpt lat="42.32293" lon="8.86564">
        <ele>1759</ele>
        <time>2009-06-08T09:14:02Z</time>
      </trkpt>
      <trkpt lat="42.32298" lon="8.86539">
        <ele>1767</ele>
        <time>2009-06-08T09:15:02Z</time>
      </trkpt>
      <trkpt lat="42.32306" lon="8.86515">
        <ele>1774</ele>
        <time>2009-06-08T09:16:02Z</time>
      </trkpt>
      <trkpt lat="42.32302" lon="8.86485">
        <ele>1782</ele>
        <time>2009-06-08T09:17:02Z</time>
      </trkpt>
      <trkpt lat="42.32298" lon="8.86452">
        <ele>1790</ele>
        <time>2009-06-08T09:18:02Z</time>
      </trkpt>
      <trkpt lat="42.32292" lon="8.8642">
        <ele>1798</ele>
        <time>2009-06-08T09:19:02Z</time>
      </trkpt>
      <trkpt lat="42.32311" lon="8.86385">
        <ele>1806</ele>
        <time>2009-06-08T09:20:02Z</time>
      </trkpt>
      <trkpt lat="42.32321" lon="8.86344">
        <ele>1814</ele>
        <time>2009-06-08T09:21:02Z</time>
      </trkpt>
      <trkpt lat="42.32335" lon="8.86301">
        <ele>1822</ele>
        <time>2009-06-08T09:22:02Z</time>
      </trkpt>
      <trkpt lat="42.32355" lon="8.86243">
        <ele>1830</ele>
        <time>2009-06-08T09:23:02Z</time>
      </trkpt>
      <trkpt lat="42.32386" lon="8.86173">
        <ele>1839</ele>
        <time>2009-06-08T09:24:02Z</time>
      </trkpt>
      <trkpt lat="42.32422" lon="8.86122">
        <ele>1847</ele>
        <time>2009-06-08T09:25:02Z</time>
      </trkpt>
      <trkpt lat="42.32469" lon="8.86093">
        <ele>1851</ele>
        <time>2009-06-08T09:26:02Z</time>
      </trkpt>
      <trkpt lat="42.32502" lon="8.86068">
        <ele>1854</ele>
        <time>2009-06-08T09:27:02Z</time>
      </trkpt>
      <trkpt lat="42.32541" lon="8.86058">
        <ele>1856</ele>
        <time>2009-06-08T09:28:02Z</time>
      </trkpt>
      <trkpt lat="42.32595" lon="8.86063">
        <ele>1864</ele>
        <time>2009-06-08T09:29:02Z</time>
      </trkpt>
      <trkpt lat="42.32634" lon="8.86081">
        <ele>1872</ele>
        <time>2009-06-08T09:30:02Z</time>
      </trkpt>
      <trkpt lat="42.3267" lon="8.86075">
        <ele>1879</ele>
        <time>2009-06-08T09:31:02Z</time>
      </trkpt>
      <trkpt lat="42.32695" lon="8.86082">
        <ele>1884</ele>
        <time>2009-06-08T09:32:02Z</time>
      </trkpt>
      <trkpt lat="42.32726" lon="8.86102">
        <ele>1891</ele>
        <time>2009-06-08T09:33:02Z</time>
      </trkpt>
      <trkpt lat="42.32754" lon="8.86114">
        <ele>1900</ele>
        <time>2009-06-08T09:34:02Z</time>
      </trkpt>
      <trkpt lat="42.32785" lon="8.86129">
        <ele>1907</ele>
        <time>2009-06-08T09:35:02Z</time>
      </trkpt>
      <trkpt lat="42.32814" lon="8.86158">
        <ele>1915</ele>
        <time>2009-06-08T09:36:02Z</time>
      </trkpt>
      <trkpt lat="42.32851" lon="8.86171">
        <ele>1923</ele>
        <time>2009-06-08T09:37:02Z</time>
      </trkpt>
      <trkpt lat="42.32884" lon="8.86177">
        <ele>1930</ele>
        <time>2009-06-08T09:38:02Z</time>
      </trkpt>
      <trkpt lat="42.32918" lon="8.86172">
        <ele>1937</ele>
        <time>2009-06-08T09:39:02Z</time>
      </trkpt>
      <trkpt lat="42.32983" lon="8.86164">
        <ele>1945</ele>
        <time>2009-06-08T09:40:02Z</time>
      </trkpt>
      <trkpt lat="42.33042" lon="8.86171">
        <ele>1947</ele>
        <time>2009-06-08T09:41:02Z</time>
      </trkpt>
      <trkpt lat="42.3309" lon="8.86179">
        <ele>1940</ele>
        <time>2009-06-08T09:42:02Z</time>
      </trkpt>
      <trkpt lat="42.33132" lon="8.86221">
        <ele>1937</ele>
        <time>2009-06-08T09:43:02Z</time>
      </trkpt>
      <trkpt lat="42.33172" lon="8.86258">
        <ele>1943</ele>
        <time>2009-06-08T09:44:02Z</time>
      </trkpt>
      <trkpt lat="42.33209" lon="8.86298">
        <ele>1949</ele>
        <time>2009-06-08T09:45:02Z</time>
      </trkpt>
      <trkpt lat="42.33244" lon="8.86331">
        <ele>1956</ele>
        <time>2009-06-08T09:46:02Z</time>
      </trkpt>
      <trkpt lat="42.33289" lon="8.86366">
        <ele>1963</ele>
        <time>2009-06-08T09:47:02Z</time>
      </trkpt>
      <trkpt lat="42.33331" lon="8.86413">
        <ele>1970</ele>
        <time>2009-06-08T09:48:02Z</time>
      </trkpt>
      <trkpt lat="42.33366" lon="8.8647">
        <ele>1977</ele>
        <time>2009-06-08T09:49:02Z</time>
      </trkpt>
      <trkpt lat="42.334" lon="8.86548">
        <ele>1983</ele>
        <time>2009-06-08T09:50:02Z</time>
      </trkpt>
      <trkpt lat="42.33426" lon="8.86603">
        <ele>1986</ele>
        <time>2009-06-08T09:51:02Z</time>
      </trkpt>
      <trkpt lat="42.33451" lon="8.86671">
        <ele>1986</ele>
        <time>2009-06-08T09:52:02Z</time>
      </trkpt>
      <trkpt lat="42.33468" lon="8.86746">
        <ele>1985</ele>
        <time>2009-06-08T09:53:02Z</time>
      </trkpt>
      <trkpt lat="42.33489" lon="8.86799">
        <ele>1985</ele>
        <time>2009-06-08T09:54:02Z</time>
      </trkpt>
      <trkpt lat="42.3349" lon="8.86807">
        <ele>1987</ele>
        <time>2009-06-08T09:55:02Z</time>
      </trkpt>
      <trkpt lat="42.33536" lon="8.86867">
        <ele>1989</ele>
        <time>2009-06-08T09:56:02Z</time>
      </trkpt>
      <trkpt lat="42.3355" lon="8.8693">
        <ele>1990</ele>
        <time>2009-06-08T09:57:02Z</time>
      </trkpt>
      <trkpt lat="42.33543" lon="8.86996">
        <ele>1989</ele>
        <time>2009-06-08T09:58:02Z</time>
      </trkpt>
      <trkpt lat="42.33541" lon="8.87035">
        <ele>1984</ele>
        <time>2009-06-08T09:59:02Z</time>
      </trkpt>
      <trkpt lat="42.33527" lon="8.87079">
        <ele>1980</ele>
        <time>2009-06-08T10:00:02Z</time>
      </trkpt>
      <trkpt lat="42.33522" lon="8.8711">
        <ele>1982</ele>
        <time>2009-06-08T10:01:02Z</time>
      </trkpt>
      <trkpt lat="42.33509" lon="8.87151">
        <ele>1986</ele>
        <time>2009-06-08T10:02:02Z</time>
      </trkpt>
      <trkpt lat="42.33511" lon="8.87177">
        <ele>1990</ele>
        <time>2009-06-08T10:03:02Z</time>
      </trkpt>
      <trkpt lat="42.33501" lon="8.87227">
        <ele>1997</ele>
        <time>2009-06-08T10:04:02Z</time>
      </trkpt>
      <trkpt lat="42.33483" lon="8.87286">
        <ele>2003</ele>
        <time>2009-06-08T10:05:02Z</time>
      </trkpt>
      <trkpt lat="42.33474" lon="8.87316">
        <ele>2010</ele>
        <time>2009-06-08T10:06:02Z</time>
      </trkpt>
      <trkpt lat="42.33472" lon="8.8735">
        <ele>2016</ele>
        <time>2009-06-08T10:07:02Z</time>
      </trkpt>
      <trkpt lat="42.33444" lon="8.87403">
        <ele>2017</ele>
        <time>2009-06-08T10:08:02Z</time>
      </trkpt>
      <trkpt lat="42.33417" lon="8.87454">
        <ele>2018</ele>
        <time>2009-06-08T10:09:02Z</time>
      </trkpt>
      <trkpt lat="42.33388" lon="8.87506">
        <ele>2026</ele>
        <time>2009-06-08T10:10:02Z</time>
      </trkpt>
      <trkpt lat="42.33359" lon="8.87561">
        <ele>2030</ele>
        <time>2009-06-08T10:11:02Z</time>
      </trkpt>
      <trkpt lat="42.3333" lon="8.87607">
        <ele>2022</ele>
        <time>2009-06-08T10:12:02Z</time>
      </trkpt>
      <trkpt lat="42.33296" lon="8.8765">
        <ele>2011</ele>
        <time>2009-06-08T10:13:02Z</time>
      </trkpt>
      <trkpt lat="42.33257" lon="8.87669">
        <ele>1999</ele>
        <time>2009-06-08T10:14:02Z</time>
      </trkpt>
      <trkpt lat="42.33259" lon="8.87671">
        <ele>1986</ele>
        <time>2009-06-08T10:15:02Z</time>
      </trkpt>
      <trkpt lat="42.33272" lon="8.8768">
        <ele>1974</ele>
        <time>2009-06-08T10:16:02Z</time>
      </trkpt>
      <trkpt lat="42.33303" lon="8.87711">
        <ele>1964</ele>
        <time>2009-06-08T10:17:02Z</time>
      </trkpt>
      <trkpt lat="42.33301" lon="8.8773">
        <ele>1958</ele>
        <time>2009-06-08T10:18:02Z</time>
      </trkpt>
      <trkpt lat="42.33306" lon="8.87751">
        <ele>1958</ele>
        <time>2009-06-08T10:19:02Z</time>
      </trkpt>
      <trkpt lat="42.3331" lon="8.87768">
        <ele>1954</ele>
        <time>2009-06-08T10:20:02Z</time>
      </trkpt>
      <trkpt lat="42.33305" lon="8.87789">
        <ele>1950</ele>
        <time>2009-06-08T10:21:02Z</time>
      </trkpt>
      <trkpt lat="42.33332" lon="8.87817">
        <ele>1941</ele>
        <time>2009-06-08T10:22:02Z</time>
      </trkpt>
      <trkpt lat="42.33356" lon="8.87826">
        <ele>1933</ele>
        <time>2009-06-08T10:23:02Z</time>
      </trkpt>
      <trkpt lat="42.33375" lon="8.87858">
        <ele>1923</ele>
        <time>2009-06-08T10:24:02Z</time>
      </trkpt>
      <trkpt lat="42.33402" lon="8.87889">
        <ele>1914</ele>
        <time>2009-06-08T10:25:02Z</time>
      </trkpt>
      <trkpt lat="42.33406" lon="8.87918">
        <ele>1905</ele>
        <time>2009-06-08T10:26:02Z</time>
      </trkpt>
      <trkpt lat="42.33404" lon="8.87929">
        <ele>1896</ele>
        <time>2009-06-08T10:27:02Z</time>
      </trkpt>
      <trkpt lat="42.33414" lon="8.87953">
        <ele>1891</ele>
        <time>2009-06-08T10:28:02Z</time>
      </trkpt>
      <trkpt lat="42.33406" lon="8.87983">
        <ele>1883</ele>
        <time>2009-06-08T10:29:02Z</time>
      </trkpt>
      <trkpt lat="42.33389" lon="8.88012">
        <ele>1874</ele>
        <time>2009-06-08T10:30:02Z</time>
      </trkpt>
      <trkpt lat="42.33407" lon="8.88042">
        <ele>1864</ele>
        <time>2009-06-08T10:31:02Z</time>
      </trkpt>
      <trkpt lat="42.334" lon="8.88067">
        <ele>1852</ele>
        <time>2009-06-08T10:32:02Z</time>
      </trkpt>
      <trkpt lat="42.33403" lon="8.8809">
        <ele>1841</ele>
        <time>2009-06-08T10:33:02Z</time>
      </trkpt>
      <trkpt lat="42.33405" lon="8.88101">
        <ele>1830</ele>
        <time>2009-06-08T10:34:02Z</time>
      </trkpt>
      <trkpt lat="42.33401" lon="8.88106">
        <ele>1821</ele>
        <time>2009-06-08T10:35:02Z</time>
      </trkpt>
      <trkpt lat="42.33392" lon="8.8812">
        <ele>1809</ele>
        <time>2009-06-08T10:36:02Z</time>
      </trkpt>
      <trkpt lat="42.33392" lon="8.88128">
        <ele>1802</ele>
        <time>2009-06-08T10:37:02Z</time>
      </trkpt>
      <trkpt lat="42.33397" lon="8.88144">
        <ele>1796</ele>
        <time>2009-06-08T10:38:02Z</time>
      </trkpt>
      <trkpt lat="42.33393" lon="8.88163">
        <ele>1789</ele>
        <time>2009-06-08T10:39:02Z</time>
      </trkpt>
      <trkpt lat="42.33385" lon="8.88167">
        <ele>1783</ele>
        <time>2009-06-08T10:40:02Z</time>
      </trkpt>
      <trkpt lat="42.33385" lon="8.88189">
        <ele>1777</ele>
        <time>2009-06-08T10:41:02Z</time>
      </trkpt>
      <trkpt lat="42.33406" lon="8.88219">
        <ele>1771</ele>
        <time>2009-06-08T10:42:02Z</time>
      </trkpt>
      <trkpt lat="42.33417" lon="8.8826">
        <ele>1763</ele>
        <time>2009-06-08T10:43:02Z</time>
      </trkpt>
      <trkpt lat="42.33429" lon="8.88295">
        <ele>1754</ele>
        <time>2009-06-08T10:44:02Z</time>
      </trkpt>
      <trkpt lat="42.33434" lon="8.88312">
        <ele>1748</ele>
        <time>2009-06-08T10:45:02Z</time>
      </trkpt>
      <trkpt lat="42.33439" lon="8.8835">
        <ele>1747</ele>
        <time>2009-06-08T10:46:02Z</time>
      </trkpt>
      <trkpt lat="42.33452" lon="8.88398">
        <ele>1740</ele>
        <time>2009-06-08T10:47:02Z</time>
      </trkpt>
      <trkpt lat="42.33457" lon="8.88444">
        <ele>1730</ele>
        <time>2009-06-08T10:48:02Z</time>
      </trkpt>
      <trkpt lat="42.3347" lon="8.88478">
        <ele>1722</ele>
        <time>2009-06-08T10:49:02Z</time>
      </trkpt>
      <trkpt lat="42.3348" lon="8.88522">
        <ele>1712</ele>
        <time>2009-06-08T10:50:02Z</time>
      </trkpt>
      <trkpt lat="42.33474" lon="8.88553">
        <ele>1701</ele>
        <time>2009-06-08T10:51:02Z</time>
      </trkpt>
      <trkpt lat="42.33485" lon="8.88596">
        <ele>1691</ele>
        <time>2009-06-08T10:52:02Z</time>
      </trkpt>
      <trkpt lat="42.33497" lon="8.88641">
        <ele>1681</ele>
        <time>2009-06-08T10:53:02Z</time>
      </trkpt>
      <trkpt lat="42.33524" lon="8.88671">
        <ele>1669</ele>
        <time>2009-06-08T10:54:02Z</time>
      </trkpt>
      <trkpt lat="42.33535" lon="8.8871">
        <ele>1659</ele>
        <time>2009-06-08T10:55:02Z</time>
      </trkpt>
      <trkpt lat="42.33547" lon="8.88726">
        <ele>1648</ele>
        <time>2009-06-08T10:56:02Z</time>
      </trkpt>
      <trkpt lat="42.33564" lon="8.88745">
        <ele>1636</ele>
        <time>2009-06-08T10:57:02Z</time>
      </trkpt>
      <trkpt lat="42.33559" lon="8.88781">
        <ele>1622</ele>
        <time>2009-06-08T10:58:02Z</time>
      </trkpt>
      <trkpt lat="42.33562" lon="8.88828">
        <ele>1611</ele>
        <time>2009-06-08T10:59:02Z</time>
      </trkpt>
      <trkpt lat="42.33568" lon="8.88862">
        <ele>1604</ele>
        <time>2009-06-08T11:00:02Z</time>
      </trkpt>
      <trkpt lat="42.33567" lon="8.88874">
        <ele>1598</ele>
        <time>2009-06-08T11:01:02Z</time>
      </trkpt>
      <trkpt lat="42.33558" lon="8.8889">
        <ele>1588</ele>
        <time>2009-06-08T11:02:02Z</time>
      </trkpt>
      <trkpt lat="42.33556" lon="8.88928">
        <ele>1577</ele>
        <time>2009-06-08T11:03:02Z</time>
      </trkpt>
      <trkpt lat="42.33546" lon="8.88962">
        <ele>1567</ele>
        <time>2009-06-08T11:04:02Z</time>
      </trkpt>
      <trkpt lat="42.33544" lon="8.89003">
        <ele>1560</ele>
        <time>2009-06-08T11:05:02Z</time>
      </trkpt>
      <trkpt lat="42.33539" lon="8.89045">
        <ele>1549</ele>
        <time>2009-06-08T11:06:02Z</time>
      </trkpt>
      <trkpt lat="42.33549" lon="8.89086">
        <ele>1537</ele>
        <time>2009-06-08T11:07:02Z</time>
      </trkpt>
      <trkpt lat="42.33554" lon="8.89113">
        <ele>1524</ele>
        <time>2009-06-08T11:08:02Z</time>
      </trkpt>
      <trkpt lat="42.33564" lon="8.89146">
        <ele>1512</ele>
        <time>2009-06-08T11:09:02Z</time>
      </trkpt>
      <trkpt lat="42.33574" lon="8.89185">
        <ele>1502</ele>
        <time>2009-06-08T11:10:02Z</time>
      </trkpt>
      <trkpt lat="42.33581" lon="8.89225">
        <ele>1491</ele>
        <time>2009-06-08T11:11:02Z</time>
      </trkpt>
      <trkpt lat="42.33588" lon="8.89277">
        <ele>1480</ele>
        <time>2009-06-08T11:12:02Z</time>
      </trkpt>
      <trkpt lat="42.33597" lon="8.8934">
        <ele>1469</ele>
        <time>2009-06-08T11:13:02Z</time>
      </trkpt>
      <trkpt lat="42.33608" lon="8.89412">
        <ele>1460</ele>
        <time>2009-06-08T11:14:02Z</time>
      </trkpt>
      <trkpt lat="42.33625" lon="8.89453">
        <ele>1450</ele>
        <time>2009-06-08T11:15:02Z</time>
      </trkpt>
      <trkpt lat="42.33629" lon="8.89496">
        <ele>1438</ele>
        <time>2009-06-08T11:16:02Z</time>
      </trkpt>
      <trkpt lat="42.33629" lon="8.8953">
        <ele>1430</ele>
        <time>2009-06-08T11:17:02Z</time>
      </trkpt>
      <trkpt lat="42.33634" lon="8.89595">
        <ele>1424</ele>
        <time>2009-06-08T11:18:02Z</time>
      </trkpt>
      <trkpt lat="42.33653" lon="8.89669">
        <ele>1424</ele>
        <time>2009-06-08T11:19:02Z</time>
      </trkpt>
      <trkpt lat="42.33676" lon="8.8972">
        <ele>1419</ele>
        <time>2009-06-08T11:20:02Z</time>
      </trkpt>
      <trkpt lat="42.33696" lon="8.89783">
        <ele>1412</ele>
        <time>2009-06-08T11:21:02Z</time>
      </trkpt>
      <trkpt lat="42.33718" lon="8.89814">
        <ele>1403</ele>
        <time>2009-06-08T11:22:02Z</time>
      </trkpt>
      <trkpt lat="42.33744" lon="8.8987">
        <ele>1405</ele>
        <time>2009-06-08T11:23:02Z</time>
      </trkpt>
      <trkpt lat="42.33771" lon="8.89927">
        <ele>1410</ele>
        <time>2009-06-08T11:24:02Z</time>
      </trkpt>
      <trkpt lat="42.33802" lon="8.90002">
        <ele>1410</ele>
        <time>2009-06-08T11:25:02Z</time>
      </trkpt>
      <trkpt lat="42.33816" lon="8.90075">
        <ele>1403</ele>
        <time>2009-06-08T11:26:02Z</time>
      </trkpt>
      <trkpt lat="42.33833" lon="8.90145">
        <ele>1404</ele>
        <time>2009-06-08T11:27:02Z</time>
      </trkpt>
      <trkpt lat="42.33867" lon="8.90208">
        <ele>1401</ele>
        <time>2009-06-08T11:28:02Z</time>
      </trkpt>
      <trkpt lat="42.33916" lon="8.90236">
        <ele>1402</ele>
        <time>2009-06-08T11:29:02Z</time>
      </trkpt>
      <trkpt lat="42.3398" lon="8.90212">
        <ele>1403</ele>
        <time>2009-06-08T11:30:02Z</time>
      </trkpt>
      <trkpt lat="42.34033" lon="8.90211">
        <ele>1402</ele>
        <time>2009-06-08T11:31:02Z</time>
      </trkpt>
      <trkpt lat="42.34074" lon="8.90197">
        <ele>1400</ele>
        <time>2009-06-08T11:32:02Z</time>
      </trkpt>
      <trkpt lat="42.34103" lon="8.90206">
        <ele>1393</ele>
        <time>2009-06-08T11:33:02Z</time>
      </trkpt>
      <trkpt lat="42.34136" lon="8.90212">
        <ele>1390</ele>
        <time>2009-06-08T11:34:02Z</time>
      </trkpt>
      <trkpt lat="42.34177" lon="8.90189">
        <ele>1388</ele>
        <time>2009-06-08T11:35:02Z</time>
      </trkpt>
      <trkpt lat="42.34229" lon="8.9014">
        <ele>1393</ele>
        <time>2009-06-08T11:36:02Z</time>
      </trkpt>
      <trkpt lat="42.34259" lon="8.9008">
        <ele>1400</ele>
        <time>2009-06-08T11:37:02Z</time>
      </trkpt>
      <trkpt lat="42.34298" lon="8.90055">
        <ele>1394</ele>
        <time>2009-06-08T11:38:02Z</time>
      </trkpt>
      <trkpt lat="42.34323" lon="8.90034">
        <ele>1386</ele>
        <time>2009-06-08T11:39:02Z</time>
      </trkpt>
      <trkpt lat="42.34323" lon="8.90021">
        <ele>1386</ele>
        <time>2009-06-08T11:40:02Z</time>
      </trkpt>
      <trkpt lat="42.34338" lon="8.90026">
        <ele>1386</ele>
        <time>2009-06-08T11:41:02Z</time>
      </trkpt>
      <trkpt lat="42.34356" lon="8.90073">
        <ele>1382</ele>
        <time>2009-06-08T11:42:02Z</time>
      </trkpt>
      <trkpt lat="42.34374" lon="8.90104">
        <ele>1385</ele>
        <time>2009-06-08T11:43:02Z</time>
      </trkpt>
      <trkpt lat="42.34389" lon="8.90131">
        <ele>1386</ele>
        <time>2009-06-08T11:44:02Z</time>
      </trkpt>
      <trkpt lat="42.34403" lon="8.90157">
        <ele>1385</ele>
        <time>2009-06-08T11:45:02Z</time>
      </trkpt>
      <trkpt lat="42.34421" lon="8.90188">
        <ele>1382</ele>
        <time>2009-06-08T11:46:02Z</time>
      </trkpt>
      <trkpt lat="42.34435" lon="8.9023">
        <ele>1378</ele>
        <time>2009-06-08T11:47:02Z</time>
      </trkpt>
      <trkpt lat="42.34446" lon="8.90256">
        <ele>1378</ele>
        <time>2009-06-08T11:48:02Z</time>
      </trkpt>
      <trkpt lat="42.34461" lon="8.90292">
        <ele>1377</ele>
        <time>2009-06-08T11:49:02Z</time>
      </trkpt>
      <trkpt lat="42.34468" lon="8.90318">
        <ele>1381</ele>
        <time>2009-06-08T11:50:02Z</time>
      </trkpt>
      <trkpt lat="42.34486" lon="8.90334">
        <ele>1384</ele>
        <time>2009-06-08T11:51:02Z</time>
      </trkpt>
      <trkpt lat="42.34504" lon="8.90371">
        <ele>1387</ele>
        <time>2009-06-08T11:52:02Z</time>
      </trkpt>
      <trkpt lat="42.34536" lon="8.90371">
        <ele>1392</ele>
        <time>2009-06-08T11:53:02Z</time>
      </trkpt>
      <trkpt lat="42.34568" lon="8.90376">
        <ele>1396</ele>
        <time>2009-06-08T11:54:02Z</time>
      </trkpt>
      <trkpt lat="42.34594" lon="8.90397">
        <ele>1395</ele>
        <time>2009-06-08T11:55:02Z</time>
      </trkpt>
      <trkpt lat="42.34626" lon="8.90418">
        <ele>1399</ele>
        <time>2009-06-08T11:56:02Z</time>
      </trkpt>
      <trkpt lat="42.3464" lon="8.90444">
        <ele>1404</ele>
        <time>2009-06-08T11:57:02Z</time>
      </trkpt>
      <trkpt lat="42.34669" lon="8.9047">
        <ele>1411</ele>
        <time>2009-06-08T11:58:02Z</time>
      </trkpt>
      <trkpt lat="42.34701" lon="8.90512">
        <ele>1417</ele>
        <time>2009-06-08T11:59:02Z</time>
      </trkpt>
      <trkpt lat="42.34737" lon="8.90522">
        <ele>1422</ele>
        <time>2009-06-08T12:00:02Z</time>
      </trkpt>
      <trkpt lat="42.34777" lon="8.90559">
        <ele>1420</ele>
        <time>2009-06-08T12:01:02Z</time>
      </trkpt>
      <trkpt lat="42.34802" lon="8.90579">
        <ele>1415</ele>
        <time>2009-06-08T12:02:02Z</time>
      </trkpt>
      <trkpt lat="42.34827" lon="8.90606">
        <ele>1415</ele>
        <time>2009-06-08T12:03:02Z</time>
      </trkpt>
      <trkpt lat="42.34856" lon="8.90606">
        <ele>1411</ele>
        <time>2009-06-08T12:04:02Z</time>
      </trkpt>
      <trkpt lat="42.34899" lon="8.90616">
        <ele>1410</ele>
        <time>2009-06-08T12:05:02Z</time>
      </trkpt>
      <trkpt lat="42.34935" lon="8.90621">
        <ele>1414</ele>
        <time>2009-06-08T12:06:02Z</time>
      </trkpt>
      <trkpt lat="42.34971" lon="8.90616">
        <ele>1419</ele>
        <time>2009-06-08T12:07:02Z</time>
      </trkpt>
      <trkpt lat="42.34992" lon="8.90616">
        <ele>1417</ele>
        <time>2009-06-08T12:08:02Z</time>
      </trkpt>
      <trkpt lat="42.35014" lon="8.90616">
        <ele>1418</ele>
        <time>2009-06-08T12:09:02Z</time>
      </trkpt>
      <trkpt lat="42.35043" lon="8.90626">
        <ele>1424</ele>
        <time>2009-06-08T12:10:02Z</time>
      </trkpt>
      <trkpt lat="42.35064" lon="8.90642">
        <ele>1429</ele>
        <time>2009-06-08T12:11:02Z</time>
      </trkpt>
      <trkpt lat="42.35079" lon="8.90663">
        <ele>1437</ele>
        <time>2009-06-08T12:12:02Z</time>
      </trkpt>
      <trkpt lat="42.35111" lon="8.90673">
        <ele>1442</ele>
        <time>2009-06-08T12:13:02Z</time>
      </trkpt>
      <trkpt lat="42.35133" lon="8.90684">
        <ele>1446</ele>
        <time>2009-06-08T12:14:02Z</time>
      </trkpt>
      <trkpt lat="42.35154" lon="8.907">
        <ele>1452</ele>
        <time>2009-06-08T12:15:02Z</time>
      </trkpt>
      <trkpt lat="42.35168" lon="8.9071">
        <ele>1459</ele>
        <time>2009-06-08T12:16:02Z</time>
      </trkpt>
      <trkpt lat="42.35194" lon="8.90705">
        <ele>1464</ele>
        <time>2009-06-08T12:17:02Z</time>
      </trkpt>
      <trkpt lat="42.35226" lon="8.90705">
        <ele>1468</ele>
        <time>2009-06-08T12:18:02Z</time>
      </trkpt>
      <trkpt lat="42.35255" lon="8.90731">
        <ele>1470</ele>
        <time>2009-06-08T12:19:02Z</time>
      </trkpt>
      <trkpt lat="42.35276" lon="8.90731">
        <ele>1473</ele>
        <time>2009-06-08T12:20:02Z</time>
      </trkpt>
      <trkpt lat="42.35291" lon="8.90731">
        <ele>1477</ele>
        <time>2009-06-08T12:21:02Z</time>
      </trkpt>
      <trkpt lat="42.35298" lon="8.90736">
        <ele>1482</ele>
        <time>2009-06-08T12:22:02Z</time>
      </trkpt>
      <trkpt lat="42.35301" lon="8.90731">
        <ele>1488</ele>
        <time>2009-06-08T12:23:02Z</time>
      </trkpt>
      <trkpt lat="42.35323" lon="8.90773">
        <ele>1494</ele>
        <time>2009-06-08T12:24:02Z</time>
      </trkpt>
      <trkpt lat="42.35352" lon="8.90793">
        <ele>1500</ele>
        <time>2009-06-08T12:25:02Z</time>
      </trkpt>
      <trkpt lat="42.3538" lon="8.90846">
        <ele>1505</ele>
        <time>2009-06-08T12:26:02Z</time>
      </trkpt>
      <trkpt lat="42.35409" lon="8.90903">
        <ele>1509</ele>
        <time>2009-06-08T12:27:02Z</time>
      </trkpt>
      <trkpt lat="42.35438" lon="8.90924">
        <ele>1513</ele>
        <time>2009-06-08T12:28:02Z</time>
      </trkpt>
      <trkpt lat="42.35485" lon="8.90955">
        <ele>1516</ele>
        <time>2009-06-08T12:29:02Z</time>
      </trkpt>
      <trkpt lat="42.35528" lon="8.90971">
        <ele>1521</ele>
        <time>2009-06-08T12:30:02Z</time>
      </trkpt>
      <trkpt lat="42.35557" lon="8.90971">
        <ele>1526</ele>
        <time>2009-06-08T12:31:02Z</time>
      </trkpt>
      <trkpt lat="42.35592" lon="8.90971">
        <ele>1531</ele>
        <time>2009-06-08T12:32:02Z</time>
      </trkpt>
      <trkpt lat="42.35625" lon="8.90971">
        <ele>1537</ele>
        <time>2009-06-08T12:33:02Z</time>
      </trkpt>
      <trkpt lat="42.35657" lon="8.90976">
        <ele>1543</ele>
        <time>2009-06-08T12:34:02Z</time>
      </trkpt>
      <trkpt lat="42.35689" lon="8.90976">
        <ele>1549</ele>
        <time>2009-06-08T12:35:02Z</time>
      </trkpt>
      <trkpt lat="42.35707" lon="8.90976">
        <ele>1555</ele>
        <time>2009-06-08T12:36:02Z</time>
      </trkpt>
      <trkpt lat="42.35729" lon="8.90976">
        <ele>1562</ele>
        <time>2009-06-08T12:37:02Z</time>
      </trkpt>
      <trkpt lat="42.35751" lon="8.90966">
        <ele>1568</ele>
        <time>2009-06-08T12:38:02Z</time>
      </trkpt>
      <trkpt lat="42.35769" lon="8.90966">
        <ele>1575</ele>
        <time>2009-06-08T12:39:02Z</time>
      </trkpt>
      <trkpt lat="42.35786" lon="8.90966">
        <ele>1580</ele>
        <time>2009-06-08T12:40:02Z</time>
      </trkpt>
      <trkpt lat="42.35808" lon="8.90955">
        <ele>1585</ele>
        <time>2009-06-08T12:41:02Z</time>
      </trkpt>
      <trkpt lat="42.35822" lon="8.90955">
        <ele>1589</ele>
        <time>2009-06-08T12:42:02Z</time>
      </trkpt>
      <trkpt lat="42.35837" lon="8.90955">
        <ele>1594</ele>
        <time>2009-06-08T12:43:02Z</time>
      </trkpt>
      <trkpt lat="42.35858" lon="8.90955">
        <ele>1594</ele>
        <time>2009-06-08T12:44:02Z</time>
      </trkpt>
      <trkpt lat="42.35869" lon="8.90961">
        <ele>1599</ele>
        <time>2009-06-08T12:45:02Z</time>
      </trkpt>
      <trkpt lat="42.35869" lon="8.90961">
        <ele>1602</ele>
        <time>2009-06-08T12:46:02Z</time>
      </trkpt>
      <trkpt lat="42.35891" lon="8.90966">
        <ele>1604</ele>
        <time>2009-06-08T12:47:02Z</time>
      </trkpt>
      <trkpt lat="42.35909" lon="8.90966">
        <ele>1609</ele>
        <time>2009-06-08T12:48:02Z</time>
      </trkpt>
      <trkpt lat="42.35927" lon="8.90966">
        <ele>1616</ele>
        <time>2009-06-08T12:49:02Z</time>
      </trkpt>
      <trkpt lat="42.35955" lon="8.90966">
        <ele>1621</ele>
        <time>2009-06-08T12:50:02Z</time>
      </trkpt>
      <trkpt lat="42.35973" lon="8.90966">
        <ele>1627</ele>
        <time>2009-06-08T12:51:02Z</time>
      </trkpt>
      <trkpt lat="42.35995" lon="8.90966">
        <ele>1633</ele>
        <time>2009-06-08T12:52:02Z</time>
      </trkpt>
      <trkpt lat="42.36024" lon="8.90976">
        <ele>1640</ele>
        <time>2009-06-08T12:53:02Z</time>
      </trkpt>
      <trkpt lat="42.36052" lon="8.91002">
        <ele>1646</ele>
        <time>2009-06-08T12:54:02Z</time>
      </trkpt>
      <trkpt lat="42.36096" lon="8.91018">
        <ele>1653</ele>
        <time>2009-06-08T12:55:02Z</time>
      </trkpt>
      <trkpt lat="42.36117" lon="8.91018">
        <ele>1659</ele>
        <time>2009-06-08T12:56:02Z</time>
      </trkpt>
      <trkpt lat="42.36135" lon="8.91008">
        <ele>1665</ele>
        <time>2009-06-08T12:57:02Z</time>
      </trkpt>
      <trkpt lat="42.36157" lon="8.91002">
        <ele>1672</ele>
        <time>2009-06-08T12:58:02Z</time>
      </trkpt>
      <trkpt lat="42.362" lon="8.91008">
        <ele>1678</ele>
        <time>2009-06-08T12:59:02Z</time>
      </trkpt>
      <trkpt lat="42.36221" lon="8.91008">
        <ele>1684</ele>
        <time>2009-06-08T13:00:02Z</time>
      </trkpt>
      <trkpt lat="42.36236" lon="8.90992">
        <ele>1685</ele>
        <time>2009-06-08T13:01:02Z</time>
      </trkpt>
      <trkpt lat="42.36243" lon="8.90971">
        <ele>1681</ele>
        <time>2009-06-08T13:02:02Z</time>
      </trkpt>
      <trkpt lat="42.36254" lon="8.90955">
        <ele>1678</ele>
        <time>2009-06-08T13:03:02Z</time>
      </trkpt>
    </trkseg>
  </trk>
</gpx>